< < Back
Terminal Aerodrome Forecast


Current Version              Previous Versions:   1  2  3  4  5  6  7  8  9  

Terminal Aerodrome Forecast

472
FTUS42 KTAE 280520
TAFDHN
TAF
KDHN 280520Z 2806/2906 VRB04KT P6SM BKN200
     FM281500 09005KT P6SM BKN060 BKN120
     FM290100 VRB03KT P6SM FEW060 BKN120=



Latest METAR

552
SAUS70 KWBC 281800
MTRDHN
METAR KDHN 281753Z VRB04KT 10SM SCT060 31/14 A3008 RMK AO2 SLP181
T03110144 10317 20217 57014


USA.gov is the U.S. government's official web portal to all federal, state and local government web resources and services.